Time;durP1;ratioP1;P1;durP2;ratioP2;P2;SDS_P1;SDS_P2;PMS_P1;PMS_P2;Temp;Humidity;BMP_temperature;BMP_pressure;BME280_temperature;BME280_humidity;BME280_pressure;Samples;Min_cycle;Max_cycle;Signal;HPM_P1;HPM_P2
2023/03/29 00:00:15;;;;;;;4.43;1.85;;;6.00;99.90;;;;;;4950656;28;20282;-83
2023/03/29 00:02:47;;;;;;;3.95;1.55;;;5.90;99.90;;;;;;4965202;28;20050;-84
2023/03/29 00:05:18;;;;;;;4.93;1.88;;;5.90;99.90;;;;;;4964518;28;20464;-85
2023/03/29 00:07:53;;;;;;;3.90;2.03;;;5.90;99.90;;;;;;4955759;28;20502;-84
2023/03/29 00:10:30;;;;;;;5.13;2.03;;;5.90;99.90;;;;;;4971681;28;20402;-84
2023/03/29 00:12:56;;;;;;;6.95;2.40;;;5.90;99.90;;;;;;4952583;28;20181;-84
2023/03/29 00:15:21;;;;;;;2.80;1.52;;;5.90;99.90;;;;;;4953104;28;20039;-83
2023/03/29 00:17:52;;;;;;;3.47;1.70;;;5.90;99.90;;;;;;4952117;28;20062;-85
2023/03/29 00:20:18;;;;;;;4.78;2.00;;;5.90;99.90;;;;;;4950117;28;20031;-84
2023/03/29 00:22:47;;;;;;;4.90;1.92;;;5.80;99.90;;;;;;4952806;28;20438;-84
2023/03/29 00:25:13;;;;;;;4.72;1.58;;;5.90;99.90;;;;;;4950642;28;20113;-83
2023/03/29 00:27:41;;;;;;;5.55;1.92;;;5.90;99.90;;;;;;4969457;28;20090;-84
2023/03/29 00:30:10;;;;;;;6.72;1.95;;;5.90;99.90;;;;;;4949050;28;20438;-83
2023/03/29 00:32:39;;;;;;;4.93;2.05;;;5.90;99.90;;;;;;4949965;28;20137;-84
2023/03/29 00:35:11;;;;;;;3.83;1.30;;;5.90;99.90;;;;;;4967223;28;20043;-84
2023/03/29 00:37:40;;;;;;;3.80;1.52;;;5.90;99.90;;;;;;4951600;28;20506;-84
2023/03/29 00:40:12;;;;;;;3.22;1.48;;;5.90;99.90;;;;;;4969105;28;20053;-84
2023/03/29 00:42:46;;;;;;;3.83;1.65;;;5.90;99.90;;;;;;4951996;28;20462;-84
2023/03/29 00:45:17;;;;;;;3.22;1.42;;;5.90;99.90;;;;;;4951011;28;20095;-83
2023/03/29 00:47:50;;;;;;;2.40;1.38;;;5.90;99.90;;;;;;4963848;28;20138;-84
2023/03/29 00:51:02;;;;;;;3.65;1.58;;;5.90;99.90;;;;;;4935137;28;20050;-84
2023/03/29 00:53:53;;;;;;;3.47;1.27;;;5.90;99.90;;;;;;4923700;28;20061;-84
2023/03/29 00:56:33;;;;;;;3.53;1.50;;;5.70;99.90;;;;;;4951463;28;20510;-84
2023/03/29 00:59:08;;;;;;;3.78;1.55;;;5.90;99.90;;;;;;4947956;28;20605;-85
2023/03/29 01:01:46;;;;;;;3.75;1.95;;;5.90;99.90;;;;;;4948112;28;20127;-83
2023/03/29 01:04:22;;;;;;;3.53;1.55;;;5.80;99.90;;;;;;4967452;28;20043;-83
2023/03/29 01:06:57;;;;;;;6.47;1.40;;;5.90;99.90;;;;;;4946160;28;20042;-84
2023/03/29 01:09:25;;;;;;;5.15;1.95;;;5.80;99.90;;;;;;4932861;28;20039;-84
2023/03/29 01:11:57;;;;;;;3.42;1.65;;;5.90;99.90;;;;;;4951561;28;20067;-84
2023/03/29 01:14:55;;;;;;;4.40;1.88;;;5.80;99.90;;;;;;4950235;28;20054;-84
2023/03/29 01:17:21;;;;;;;6.38;2.08;;;5.80;99.90;;;;;;4949130;28;20422;-84
2023/03/29 01:20:32;;;;;;;3.97;1.70;;;5.80;99.90;;;;;;4949580;28;20062;-84
2023/03/29 01:23:37;;;;;;;3.60;1.63;;;5.80;99.90;;;;;;4924835;28;20618;-84
2023/03/29 01:26:30;;;;;;;6.70;1.80;;;5.80;99.90;;;;;;4950220;28;20493;-83
2023/03/29 01:29:04;;;;;;;3.00;1.83;;;5.80;99.90;;;;;;4966394;28;20066;-84
2023/03/29 01:31:38;;;;;;;4.97;1.70;;;5.70;99.90;;;;;;4967221;28;20031;-84
2023/03/29 01:34:29;;;;;;;3.10;1.45;;;5.70;99.90;;;;;;4950062;28;20039;-84
2023/03/29 01:37:14;;;;;;;4.18;1.92;;;5.80;99.90;;;;;;4924137;28;20109;-82
2023/03/29 01:39:40;;;;;;;3.22;1.73;;;5.80;99.90;;;;;;4992724;23;20045;-72
2023/03/29 01:42:15;;;;;;;6.33;1.80;;;5.80;99.90;;;;;;5022179;28;20296;-72
2023/03/29 01:45:00;;;;;;;3.75;1.55;;;5.80;99.90;;;;;;5003258;28;20128;-72
2023/03/29 01:48:06;;;;;;;4.10;1.90;;;5.80;99.90;;;;;;5002064;28;20069;-72
2023/03/29 01:50:47;;;;;;;5.65;1.92;;;5.80;99.90;;;;;;4919232;28;20086;-72
2023/03/29 01:53:44;;;;;;;3.65;1.70;;;5.80;99.90;;;;;;4991786;28;20053;-72
2023/03/29 01:56:17;;;;;;;4.35;1.73;;;5.80;99.90;;;;;;5013069;28;20094;-72
2023/03/29 01:58:46;;;;;;;3.83;1.83;;;5.80;99.90;;;;;;4997918;28;20325;-72
2023/03/29 02:01:16;;;;;;;5.10;1.80;;;5.80;99.90;;;;;;5000106;28;20382;-72
2023/03/29 02:03:48;;;;;;;3.33;1.60;;;5.80;99.90;;;;;;5018415;28;20049;-72
2023/03/29 02:06:22;;;;;;;4.82;2.13;;;5.80;99.90;;;;;;4999049;28;20404;-72
2023/03/29 02:08:50;;;;;;;4.50;1.90;;;5.80;99.90;;;;;;4985756;28;20049;-72
2023/03/29 02:11:23;;;;;;;4.00;1.75;;;5.80;99.90;;;;;;5004189;28;20042;-71
2023/03/29 02:13:48;;;;;;;3.95;1.98;;;5.80;99.90;;;;;;4987012;28;20132;-71
2023/03/29 02:16:15;;;;;;;5.93;1.87;;;5.80;99.90;;;;;;5019692;28;20186;-71
2023/03/29 02:18:43;;;;;;;5.50;1.85;;;5.80;99.90;;;;;;5018430;28;20045;-72
2023/03/29 02:21:13;;;;;;;4.13;2.00;;;5.90;99.90;;;;;;4998359;28;20068;-71
2023/03/29 02:23:45;;;;;;;5.75;1.92;;;5.80;99.90;;;;;;5005605;28;20266;-71
2023/03/29 02:26:13;;;;;;;4.03;1.73;;;5.90;99.90;;;;;;5005024;28;20041;-71
2023/03/29 02:28:40;;;;;;;3.40;1.70;;;5.90;99.90;;;;;;4998524;28;20049;-72
2023/03/29 02:31:20;;;;;;;3.42;1.75;;;5.90;99.90;;;;;;4999489;28;20052;-72
2023/03/29 02:34:08;;;;;;;5.13;2.15;;;5.90;99.90;;;;;;5000775;28;20049;-72
2023/03/29 02:36:49;;;;;;;3.50;1.70;;;5.90;99.90;;;;;;4983317;28;21306;-75
2023/03/29 02:39:16;;;;;;;6.45;1.98;;;5.90;99.90;;;;;;5010452;28;20581;-73
2023/03/29 02:41:45;;;;;;;4.68;1.92;;;5.90;99.90;;;;;;5002113;28;20041;-71
2023/03/29 02:44:16;;;;;;;5.75;2.50;;;5.90;99.90;;;;;;5014948;28;20495;-72
2023/03/29 02:46:43;;;;;;;4.55;2.00;;;5.90;99.90;;;;;;5002417;28;20049;-72
2023/03/29 02:49:10;;;;;;;8.75;2.50;;;5.90;99.90;;;;;;4997305;28;20079;-72
2023/03/29 02:51:37;;;;;;;6.03;2.28;;;5.90;99.90;;;;;;4998663;28;20555;-72
2023/03/29 02:54:14;;;;;;;3.75;1.92;;;5.90;99.90;;;;;;5004617;28;20049;-73
2023/03/29 02:56:48;;;;;;;4.28;2.00;;;5.90;99.90;;;;;;5001952;28;20227;-71
2023/03/29 02:59:18;;;;;;;4.57;2.47;;;5.90;99.90;;;;;;5002613;28;20050;-73
2023/03/29 03:01:46;;;;;;;3.00;1.67;;;5.90;99.90;;;;;;5001464;28;20037;-72
2023/03/29 03:04:11;;;;;;;8.32;2.22;;;5.90;99.90;;;;;;5005866;28;20038;-71
2023/03/29 03:06:38;;;;;;;4.63;2.50;;;5.90;99.90;;;;;;4998947;28;20045;-71
2023/03/29 03:09:05;;;;;;;5.38;2.60;;;5.90;99.90;;;;;;4981487;28;20120;-71
2023/03/29 03:11:32;;;;;;;6.65;2.47;;;5.90;99.90;;;;;;5021338;28;20326;-73
2023/03/29 03:13:58;;;;;;;7.18;2.78;;;5.90;99.90;;;;;;5020582;28;20079;-73
2023/03/29 03:16:26;;;;;;;3.80;2.10;;;6.00;99.90;;;;;;4979876;28;20081;-71
2023/03/29 03:18:53;;;;;;;5.75;3.05;;;5.90;99.90;;;;;;5004267;28;20842;-71
2023/03/29 03:21:19;;;;;;;7.25;2.53;;;5.90;99.90;;;;;;5018089;28;20041;-72
2023/03/29 03:23:46;;;;;;;4.93;2.47;;;5.90;99.90;;;;;;5001794;28;20407;-71
2023/03/29 03:26:12;;;;;;;4.72;2.53;;;5.90;99.90;;;;;;5004854;28;20052;-73
2023/03/29 03:28:37;;;;;;;4.90;2.23;;;6.00;99.90;;;;;;4995202;28;20045;-73
2023/03/29 03:31:04;;;;;;;9.77;2.70;;;5.90;99.90;;;;;;5000166;28;20310;-71
2023/03/29 03:33:30;;;;;;;4.72;2.50;;;6.00;99.90;;;;;;5005443;28;20115;-72
2023/03/29 03:36:01;;;;;;;7.63;3.07;;;5.90;99.90;;;;;;5003384;28;20309;-71
2023/03/29 03:38:34;;;;;;;7.10;2.42;;;6.00;99.90;;;;;;4997874;28;20162;-71
2023/03/29 03:41:00;;;;;;;8.95;2.63;;;5.90;99.90;;;;;;4996883;28;20038;-73
2023/03/29 03:43:27;;;;;;;8.55;2.47;;;5.90;99.90;;;;;;5019384;28;20034;-72
2023/03/29 03:45:53;;;;;;;;;;;6.00;99.90;;;;;;5004050;28;20519;-72
2023/03/29 03:48:21;;;;;;;6.32;2.55;;;6.00;99.90;;;;;;5001965;28;19965;-71
2023/03/29 03:50:53;;;;;;;4.65;2.38;;;6.00;99.90;;;;;;4999128;28;20041;-71
2023/03/29 03:53:19;;;;;;;5.68;2.45;;;6.00;99.90;;;;;;5000805;28;20049;-72
2023/03/29 03:55:49;;;;;;;7.20;2.67;;;6.00;99.90;;;;;;5020851;28;20463;-71
2023/03/29 03:58:15;;;;;;;6.88;2.55;;;6.00;99.90;;;;;;4998410;28;20049;-72
2023/03/29 04:00:41;;;;;;;5.15;2.65;;;6.00;99.90;;;;;;4997832;28;20527;-71
2023/03/29 04:03:07;;;;;;;4.13;2.35;;;6.00;99.90;;;;;;5004729;28;20060;-72
2023/03/29 04:05:32;;;;;;;6.30;2.43;;;6.00;99.90;;;;;;4996081;28;23738;-71
2023/03/29 04:07:59;;;;;;;4.93;2.87;;;6.10;99.90;;;;;;4996551;28;20037;-71
2023/03/29 04:10:24;;;;;;;4.50;2.60;;;6.00;99.90;;;;;;5012215;28;20051;-72
2023/03/29 04:12:50;;;;;;;5.43;2.33;;;6.00;99.90;;;;;;4987500;28;20502;-71
2023/03/29 04:15:16;;;;;;;5.70;1.93;;;6.00;99.90;;;;;;5016433;28;20566;-72
2023/03/29 04:17:42;;;;;;;4.53;2.40;;;6.10;99.90;;;;;;4983718;28;20104;-72
2023/03/29 04:20:12;;;;;;;4.63;2.20;;;6.10;99.90;;;;;;4992112;28;20041;-74
2023/03/29 04:22:38;;;;;;;4.70;2.65;;;6.10;99.90;;;;;;5018750;28;20510;-73
2023/03/29 04:25:05;;;;;;;5.75;2.25;;;6.10;99.90;;;;;;5003909;28;20514;-71
2023/03/29 04:27:31;;;;;;;4.75;2.60;;;6.10;99.90;;;;;;4982136;28;20060;-74
2023/03/29 04:29:57;;;;;;;5.53;2.67;;;6.10;99.90;;;;;;5008610;28;20040;-71
2023/03/29 04:32:25;;;;;;;5.53;2.90;;;6.10;99.90;;;;;;4998465;28;20049;-71
2023/03/29 04:34:51;;;;;;;6.18;2.58;;;6.10;99.90;;;;;;5001074;28;20052;-70
2023/03/29 04:37:20;;;;;;;5.50;2.37;;;6.10;99.90;;;;;;4997579;28;20300;-73
2023/03/29 04:39:48;;;;;;;5.78;3.15;;;6.10;99.90;;;;;;5015976;28;20049;-72
2023/03/29 04:42:14;;;;;;;5.72;2.67;;;6.10;99.90;;;;;;5002432;28;20505;-72
2023/03/29 04:44:41;;;;;;;6.10;2.70;;;6.10;99.90;;;;;;5003970;28;20041;-72
2023/03/29 04:47:07;;;;;;;4.28;2.45;;;6.10;99.90;;;;;;5001367;28;20290;-72
2023/03/29 04:49:32;;;;;;;6.60;2.63;;;6.10;99.90;;;;;;5002309;28;20033;-74
2023/03/29 04:51:59;;;;;;;4.83;2.73;;;6.10;99.90;;;;;;5004163;28;20578;-76
2023/03/29 04:54:25;;;;;;;8.73;2.65;;;6.10;99.90;;;;;;4998103;28;20046;-74
2023/03/29 04:56:51;;;;;;;9.70;3.13;;;6.10;99.90;;;;;;5001634;28;20033;-75
2023/03/29 04:59:19;;;;;;;6.50;3.03;;;6.20;99.90;;;;;;4996881;28;20046;-75
2023/03/29 05:01:45;;;;;;;6.63;3.28;;;6.10;99.90;;;;;;4984143;28;20044;-74
2023/03/29 05:04:11;;;;;;;5.30;2.40;;;6.20;99.90;;;;;;5004393;28;20120;-73
2023/03/29 05:06:37;;;;;;;7.23;3.13;;;6.20;99.90;;;;;;4995427;28;20145;-74
2023/03/29 05:09:05;;;;;;;6.25;2.83;;;6.10;99.90;;;;;;5002416;28;20263;-72
2023/03/29 05:11:35;;;;;;;5.20;2.97;;;6.20;99.90;;;;;;4999001;28;20080;-70
2023/03/29 05:14:02;;;;;;;6.22;2.75;;;6.20;99.90;;;;;;5008880;28;20041;-71
2023/03/29 05:16:30;;;;;;;5.05;2.42;;;6.20;99.90;;;;;;5005822;28;20045;-70
2023/03/29 05:18:57;;;;;;;5.95;2.60;;;6.20;99.90;;;;;;5004305;28;20410;-72
2023/03/29 05:21:24;;;;;;;;;;;6.20;99.90;;;;;;5004473;28;20041;-71
2023/03/29 05:23:53;;;;;;;5.90;3.10;;;6.20;99.90;;;;;;5012356;28;20370;-72
2023/03/29 05:26:21;;;;;;;11.75;3.78;;;6.20;99.90;;;;;;5004741;28;20558;-71
2023/03/29 05:28:49;;;;;;;7.07;3.10;;;6.20;99.90;;;;;;5005783;28;20047;-71
2023/03/29 05:31:15;;;;;;;7.18;3.53;;;6.20;99.90;;;;;;5002758;28;20241;-72
2023/03/29 05:33:41;;;;;;;5.70;2.80;;;6.20;99.90;;;;;;5009908;28;20072;-72
2023/03/29 05:36:09;;;;;;;7.95;3.50;;;6.20;99.90;;;;;;5006569;28;20287;-72
2023/03/29 05:38:35;;;;;;;9.70;3.97;;;6.20;99.90;;;;;;5004693;28;20414;-71
2023/03/29 05:41:01;;;;;;;5.20;3.08;;;6.20;99.90;;;;;;5005532;28;20037;-71
2023/03/29 05:43:27;;;;;;;7.88;4.00;;;6.20;99.90;;;;;;5002323;28;20166;-72
2023/03/29 05:45:54;;;;;;;7.47;3.50;;;6.20;99.90;;;;;;4998465;28;20099;-73
2023/03/29 05:48:21;;;;;;;7.32;3.88;;;6.20;99.90;;;;;;4993825;28;20044;-72
2023/03/29 05:50:51;;;;;;;7.47;3.47;;;6.20;99.90;;;;;;5018469;28;20543;-72
2023/03/29 05:53:18;;;;;;;8.00;3.72;;;6.20;99.90;;;;;;5007305;28;20489;-72
2023/03/29 05:55:44;;;;;;;7.07;3.22;;;6.20;99.90;;;;;;5000170;28;20048;-71
2023/03/29 05:58:11;;;;;;;6.77;3.20;;;6.20;99.90;;;;;;5013006;28;20046;-72
2023/03/29 06:00:37;;;;;;;7.05;3.75;;;6.20;99.90;;;;;;5017577;28;20311;-71
2023/03/29 06:03:04;;;;;;;6.70;3.90;;;6.20;99.90;;;;;;5004007;28;20342;-72
2023/03/29 06:05:29;;;;;;;8.75;4.50;;;6.20;99.90;;;;;;5002869;28;20050;-75
2023/03/29 06:07:55;;;;;;;9.43;3.83;;;6.20;99.90;;;;;;5001794;28;20060;-70
2023/03/29 06:10:22;;;;;;;9.98;3.88;;;6.20;99.90;;;;;;5022812;28;20257;-76
2023/03/29 06:12:48;;;;;;;7.75;3.47;;;6.20;99.90;;;;;;5002381;28;20053;-71
2023/03/29 06:15:15;;;;;;;7.40;3.30;;;6.20;99.90;;;;;;5003579;28;20404;-71
2023/03/29 06:17:41;;;;;;;6.18;3.72;;;6.30;99.90;;;;;;5007872;28;20059;-71
2023/03/29 06:20:09;;;;;;;7.55;4.38;;;6.30;99.90;;;;;;5023893;28;20046;-72
2023/03/29 06:22:39;;;;;;;5.88;3.30;;;6.30;99.90;;;;;;5019482;28;20044;-71
2023/03/29 06:25:09;;;;;;;7.72;4.00;;;6.30;99.90;;;;;;5000540;28;20308;-71
2023/03/29 06:27:35;;;;;;;7.10;3.60;;;6.30;99.90;;;;;;5007623;28;20037;-72
2023/03/29 06:30:01;;;;;;;6.60;3.83;;;6.30;99.90;;;;;;5008270;28;20465;-73
2023/03/29 06:32:27;;;;;;;8.77;4.10;;;6.40;99.90;;;;;;5020922;28;20064;-72
2023/03/29 06:34:53;;;;;;;6.40;3.60;;;6.40;99.90;;;;;;4986641;28;20046;-71
2023/03/29 06:37:20;;;;;;;6.87;3.57;;;6.40;99.90;;;;;;5023257;28;20305;-71
2023/03/29 06:39:51;;;;;;;6.00;4.00;;;6.50;99.90;;;;;;5001791;28;20038;-71
2023/03/29 06:42:18;;;;;;;7.68;3.97;;;6.50;99.90;;;;;;5003222;28;20030;-72
2023/03/29 06:44:45;;;;;;;13.18;3.85;;;6.60;99.90;;;;;;4981991;28;20448;-71
2023/03/29 06:47:12;;;;;;;8.50;3.47;;;6.60;99.90;;;;;;5023285;28;20041;-71
2023/03/29 06:49:38;;;;;;;10.63;4.25;;;6.60;99.90;;;;;;5022902;28;20550;-71
2023/03/29 06:52:04;;;;;;;7.18;3.47;;;6.60;99.90;;;;;;5000982;28;20515;-71
2023/03/29 06:54:29;;;;;;;13.68;4.10;;;6.70;99.90;;;;;;5025096;28;20033;-70
2023/03/29 06:56:56;;;;;;;6.23;3.40;;;6.70;99.90;;;;;;4987454;28;20191;-71
2023/03/29 06:59:22;;;;;;;;;;;6.70;99.90;;;;;;5021455;28;20505;-71
2023/03/29 07:01:47;;;;;;;9.70;4.57;;;6.70;99.90;;;;;;5002924;28;19921;-71
2023/03/29 07:04:13;;;;;;;6.83;3.90;;;6.70;99.90;;;;;;5003944;28;20113;-71
2023/03/29 07:06:39;;;;;;;11.30;4.10;;;6.80;99.90;;;;;;5000585;28;20574;-71
2023/03/29 07:09:05;;;;;;;8.57;4.20;;;6.80;99.90;;;;;;5024931;28;20289;-72
2023/03/29 07:11:35;;;;;;;7.97;4.25;;;6.80;99.90;;;;;;5018297;28;20112;-70
2023/03/29 07:14:04;;;;;;;9.57;5.22;;;6.90;99.90;;;;;;5003446;28;20053;-72
2023/03/29 07:16:31;;;;;;;8.30;4.68;;;6.90;99.90;;;;;;5005983;28;20040;-71
2023/03/29 07:18:57;;;;;;;8.00;3.97;;;7.00;99.90;;;;;;5021117;28;20073;-70
2023/03/29 07:21:22;;;;;;;10.07;3.97;;;7.00;99.90;;;;;;5001677;28;20134;-71
2023/03/29 07:23:48;;;;;;;13.13;4.57;;;7.10;99.90;;;;;;5003253;28;20042;-71
2023/03/29 07:26:15;;;;;;;13.80;4.70;;;7.00;99.90;;;;;;5020203;28;20042;-71
2023/03/29 07:28:42;;;;;;;10.80;4.38;;;7.10;99.90;;;;;;5002775;28;20054;-71
2023/03/29 07:31:09;;;;;;;14.30;4.68;;;7.10;99.90;;;;;;4999025;28;20057;-71
2023/03/29 07:33:36;;;;;;;7.25;3.83;;;7.20;99.90;;;;;;4999282;28;20045;-70
2023/03/29 07:36:03;;;;;;;10.15;4.03;;;7.20;99.90;;;;;;5006044;28;20049;-71
2023/03/29 07:38:30;;;;;;;8.77;4.35;;;7.30;99.90;;;;;;5022931;28;20129;-71
2023/03/29 07:40:56;;;;;;;;;;;7.30;99.90;;;;;;5006223;28;20099;-72
2023/03/29 07:43:22;;;;;;;9.57;4.22;;;7.30;99.90;;;;;;4988082;28;19917;-71
2023/03/29 07:45:50;;;;;;;8.18;3.88;;;7.30;99.90;;;;;;4989185;28;20075;-71
2023/03/29 07:48:16;;;;;;;9.98;4.88;;;7.40;99.90;;;;;;5022447;28;20072;-71
2023/03/29 07:50:43;;;;;;;10.73;4.88;;;7.30;99.90;;;;;;5023904;28;20194;-70
2023/03/29 07:53:09;;;;;;;10.43;4.60;;;7.50;99.90;;;;;;5015701;28;20400;-71
2023/03/29 07:55:35;;;;;;;8.23;4.30;;;7.50;99.90;;;;;;4988408;28;20071;-71
2023/03/29 07:58:01;;;;;;;8.60;4.67;;;7.60;99.90;;;;;;5001322;28;20055;-70
2023/03/29 08:00:27;;;;;;;8.82;4.25;;;7.60;99.90;;;;;;5001968;28;20045;-71
2023/03/29 08:02:54;;;;;;;8.83;4.37;;;7.60;99.90;;;;;;5022767;28;20148;-70
2023/03/29 08:05:21;;;;;;;9.45;4.55;;;7.70;99.90;;;;;;5003373;28;20120;-71
2023/03/29 08:07:47;;;;;;;8.90;4.25;;;7.70;99.90;;;;;;5008811;28;20152;-71
2023/03/29 08:10:18;;;;;;;7.95;4.65;;;7.70;99.90;;;;;;4984435;28;20041;-71
2023/03/29 08:12:46;;;;;;;8.20;3.95;;;7.70;99.90;;;;;;5001636;28;20072;-71
2023/03/29 08:15:12;;;;;;;11.32;4.50;;;7.70;99.90;;;;;;5019345;28;20041;-71
2023/03/29 08:17:38;;;;;;;11.35;5.40;;;7.80;99.90;;;;;;5014479;28;20050;-71
2023/03/29 08:20:08;;;;;;;10.55;4.78;;;7.80;99.90;;;;;;5003386;28;20059;-70
2023/03/29 08:22:34;;;;;;;10.18;4.18;;;7.80;99.90;;;;;;4995696;28;20091;-70
2023/03/29 08:25:00;;;;;;;12.75;4.93;;;7.90;99.90;;;;;;4999038;28;20041;-70
2023/03/29 08:27:26;;;;;;;8.18;4.88;;;7.90;99.90;;;;;;4999354;28;20037;-71
2023/03/29 08:29:52;;;;;;;9.83;4.77;;;8.00;99.90;;;;;;5004279;28;20439;-70
2023/03/29 08:32:17;;;;;;;9.97;4.50;;;8.00;99.90;;;;;;4999532;28;20045;-71
2023/03/29 08:34:43;;;;;;;9.77;4.67;;;8.10;99.90;;;;;;5018265;28;20107;-71
2023/03/29 08:37:09;;;;;;;10.53;4.70;;;8.10;99.90;;;;;;5004583;28;20125;-70
2023/03/29 08:39:35;;;;;;;;;;;8.10;99.90;;;;;;4999882;28;20069;-71
2023/03/29 08:42:28;;;;;;;12.40;5.28;;;8.20;99.90;;;;;;5004169;28;20357;-72
2023/03/29 08:45:13;;;;;;;10.52;4.57;;;8.20;99.90;;;;;;5000716;28;20045;-71
2023/03/29 08:48:04;;;;;;;9.90;4.75;;;8.30;99.90;;;;;;4996357;28;20071;-70
2023/03/29 08:50:35;;;;;;;9.32;4.63;;;8.30;99.90;;;;;;5000565;28;20033;-71
2023/03/29 08:53:11;;;;;;;7.65;4.38;;;8.40;99.90;;;;;;5011776;28;20263;-71
2023/03/29 08:55:44;;;;;;;7.80;4.35;;;8.40;99.90;;;;;;5018862;28;20057;-71
2023/03/29 08:58:17;;;;;;;11.20;4.68;;;8.50;99.90;;;;;;5001504;28;20097;-72
2023/03/29 09:00:49;;;;;;;11.57;4.72;;;8.60;99.90;;;;;;4999843;28;20038;-71
2023/03/29 09:03:44;;;;;;;7.85;4.10;;;8.70;99.90;;;;;;5002625;28;20041;-72
2023/03/29 09:06:11;;;;;;;12.90;4.78;;;8.80;99.90;;;;;;4998230;28;20510;-71
2023/03/29 09:08:41;;;;;;;11.38;4.93;;;8.90;99.90;;;;;;5000001;28;20045;-71
2023/03/29 09:11:22;;;;;;;11.77;4.65;;;8.90;99.90;;;;;;5006368;28;20292;-72
2023/03/29 09:14:00;;;;;;;7.10;4.07;;;9.10;99.90;;;;;;5000116;28;20057;-71
2023/03/29 09:17:03;;;;;;;8.00;4.55;;;9.10;99.90;;;;;;4980359;28;20049;-72
2023/03/29 09:20:05;;;;;;;10.77;4.57;;;9.20;99.90;;;;;;4965822;28;20045;-72
2023/03/29 09:22:40;;;;;;;9.75;4.50;;;9.30;99.90;;;;;;4922107;29;20043;-71
2023/03/29 09:25:24;;;;;;;14.65;5.80;;;9.40;99.90;;;;;;4982834;28;20339;-71
2023/03/29 09:27:55;;;;;;;12.80;5.50;;;9.50;99.90;;;;;;5003621;28;20037;-72
2023/03/29 09:30:25;;;;;;;11.15;5.50;;;9.60;99.90;;;;;;5001116;28;20064;-72
2023/03/29 09:33:01;;;;;;;9.60;5.22;;;9.60;99.90;;;;;;4996896;28;20041;-72
2023/03/29 09:36:03;;;;;;;12.13;5.40;;;9.70;99.90;;;;;;4996205;28;20050;-71
2023/03/29 09:38:30;;;;;;;12.50;5.53;;;9.70;99.90;;;;;;4995171;28;20119;-72
2023/03/29 09:41:25;;;;;;;14.90;5.45;;;9.80;99.90;;;;;;5017968;28;20099;-71
2023/03/29 09:43:53;;;;;;;9.45;5.03;;;9.80;99.90;;;;;;5002528;28;20054;-71
2023/03/29 09:46:28;;;;;;;11.25;4.82;;;9.90;99.90;;;;;;4999240;28;20146;-72
2023/03/29 09:48:55;;;;;;;12.75;6.10;;;10.00;99.90;;;;;;5000412;28;20041;-71
2023/03/29 09:51:25;;;;;;;14.55;5.35;;;10.00;99.90;;;;;;4995564;28;20068;-72
2023/03/29 09:53:53;;;;;;;13.85;5.55;;;10.00;99.90;;;;;;4984748;28;20076;-71
2023/03/29 09:56:19;;;;;;;11.18;5.25;;;10.10;99.90;;;;;;5002034;28;20225;-71
2023/03/29 09:58:45;;;;;;;11.23;6.00;;;10.10;99.90;;;;;;5020524;28;20111;-71
2023/03/29 10:01:12;;;;;;;;;;;10.20;99.90;;;;;;5022289;28;20041;-72
2023/03/29 10:03:40;;;;;;;7.90;4.60;;;10.20;99.90;;;;;;5018836;28;20343;-72
2023/03/29 10:06:09;;;;;;;11.32;5.47;;;10.30;99.90;;;;;;4996897;28;20053;-72
2023/03/29 10:08:39;;;;;;;14.27;5.90;;;10.20;99.90;;;;;;4996720;28;20367;-71
2023/03/29 10:11:13;;;;;;;9.63;5.55;;;10.30;99.90;;;;;;5001437;28;20048;-71
2023/03/29 10:13:46;;;;;;;13.23;6.03;;;10.40;99.90;;;;;;5023825;28;20398;-71
2023/03/29 10:16:22;;;;;;;13.48;6.03;;;10.50;99.90;;;;;;5005436;28;20046;-71
2023/03/29 10:18:49;;;;;;;16.55;6.35;;;10.50;99.90;;;;;;5021857;28;20041;-71
2023/03/29 10:21:16;;;;;;;14.00;6.85;;;10.60;99.90;;;;;;5009757;28;20487;-71
2023/03/29 10:23:42;;;;;;;14.50;6.22;;;10.70;99.90;;;;;;5017242;28;20118;-72
2023/03/29 10:26:33;;;;;;;16.60;7.53;;;10.80;99.90;;;;;;5024247;28;20599;-71
2023/03/29 10:29:02;;;;;;;11.02;6.05;;;10.80;99.90;;;;;;4998348;28;20341;-71
2023/03/29 10:31:31;;;;;;;17.60;7.22;;;10.90;99.90;;;;;;5017560;28;20059;-71
2023/03/29 10:34:03;;;;;;;13.77;7.20;;;11.00;99.90;;;;;;5002290;28;20046;-71
2023/03/29 10:36:29;;;;;;;15.75;7.75;;;11.10;99.90;;;;;;5012494;28;20041;-71
2023/03/29 10:39:01;;;;;;;18.08;7.60;;;11.20;99.90;;;;;;5002860;28;20054;-71
2023/03/29 10:41:28;;;;;;;15.32;7.70;;;11.20;99.90;;;;;;5000528;28;20056;-70
2023/03/29 10:43:54;;;;;;;15.40;6.88;;;11.20;99.90;;;;;;4993899;28;20579;-72
2023/03/29 10:46:26;;;;;;;14.88;6.88;;;11.30;99.90;;;;;;5014802;28;20052;-70
2023/03/29 10:48:59;;;;;;;17.63;7.43;;;11.30;99.90;;;;;;5016713;28;20103;-71
2023/03/29 10:51:29;;;;;;;18.48;8.82;;;11.50;99.90;;;;;;5000809;28;20363;-70
2023/03/29 10:53:57;;;;;;;16.48;7.75;;;11.60;99.90;;;;;;5012269;28;20077;-71
2023/03/29 10:56:45;;;;;;;18.80;8.75;;;11.60;99.90;;;;;;5021225;28;20499;-70
2023/03/29 10:59:23;;;;;;;16.88;8.25;;;11.70;99.90;;;;;;5002237;28;20494;-70
2023/03/29 11:02:13;;;;;;;19.20;9.15;;;11.70;99.90;;;;;;5004203;28;20044;-70
2023/03/29 11:05:08;;;;;;;15.68;8.40;;;11.70;99.90;;;;;;4998018;28;20044;-71
2023/03/29 11:07:42;;;;;;;14.48;8.15;;;11.70;99.90;;;;;;4979634;28;20045;-71
2023/03/29 11:10:51;;;;;;;16.65;7.85;;;11.70;99.90;;;;;;5001490;28;20419;-70
2023/03/29 11:13:29;;;;;;;17.08;8.32;;;11.70;99.90;;;;;;5005425;28;20227;-71
2023/03/29 11:16:20;;;;;;;19.55;8.90;;;11.70;99.90;;;;;;5003631;28;20056;-71
2023/03/29 11:19:11;;;;;;;18.95;8.55;;;11.80;99.90;;;;;;4996430;28;20042;-70
2023/03/29 11:22:05;;;;;;;16.58;8.43;;;11.80;99.90;;;;;;5015446;28;20503;-72
2023/03/29 11:24:49;;;;;;;21.20;9.13;;;11.90;99.90;;;;;;5004715;28;20072;-71
2023/03/29 11:27:33;;;;;;;19.52;8.98;;;11.90;99.90;;;;;;5003876;28;20052;-71
2023/03/29 11:30:26;;;;;;;20.08;9.07;;;12.00;99.90;;;;;;5000688;28;20033;-71
2023/03/29 11:33:01;;;;;;;17.40;9.50;;;12.00;99.90;;;;;;5020551;28;20099;-71
2023/03/29 11:35:42;;;;;;;17.83;8.75;;;12.10;99.90;;;;;;5013967;28;20049;-71
2023/03/29 11:38:31;;;;;;;18.08;8.00;;;12.20;99.90;;;;;;5014801;28;20080;-71
2023/03/29 11:41:03;;;;;;;16.42;8.80;;;12.20;99.90;;;;;;4997947;28;20121;-70
2023/03/29 11:43:34;;;;;;;19.20;8.77;;;12.30;99.90;;;;;;5002015;28;20355;-71
2023/03/29 11:46:12;;;;;;;18.30;8.50;;;12.30;99.90;;;;;;4997703;28;20074;-71
2023/03/29 11:49:04;;;;;;;16.38;8.02;;;12.30;99.90;;;;;;4999777;28;20081;-71
2023/03/29 11:51:50;;;;;;;18.38;8.18;;;12.30;99.90;;;;;;4984419;28;20049;-70
2023/03/29 11:54:44;;;;;;;23.25;9.25;;;12.30;99.90;;;;;;5015207;28;20568;-71
2023/03/29 11:57:33;;;;;;;19.48;9.30;;;12.40;99.90;;;;;;4985929;28;20068;-71
2023/03/29 12:00:23;;;;;;;19.58;9.45;;;12.40;99.90;;;;;;5021610;28;20033;-71
2023/03/29 12:03:23;;;;;;;14.82;8.10;;;12.50;99.90;;;;;;5002744;28;20044;-72
2023/03/29 12:05:56;;;;;;;16.92;8.77;;;12.60;99.90;;;;;;5018070;28;20079;-71
2023/03/29 12:08:29;;;;;;;15.32;9.07;;;12.70;99.90;;;;;;5015367;28;20092;-70
2023/03/29 12:11:04;;;;;;;19.77;9.48;;;12.80;99.90;;;;;;5014771;28;20499;-70
2023/03/29 12:13:37;;;;;;;19.38;9.18;;;12.90;99.90;;;;;;5014770;28;20117;-71
2023/03/29 12:16:03;;;;;;;18.35;8.32;;;12.90;99.90;;;;;;4994545;28;20034;-71
2023/03/29 12:18:38;;;;;;;20.05;9.50;;;12.90;99.90;;;;;;5000709;28;20095;-72
2023/03/29 12:21:13;;;;;;;15.05;8.68;;;12.80;99.90;;;;;;4980185;28;20042;-71
2023/03/29 12:23:42;;;;;;;21.73;9.82;;;12.70;99.90;;;;;;5000370;28;20124;-70
2023/03/29 12:26:22;;;;;;;17.65;8.48;;;12.70;99.90;;;;;;5010851;28;20060;-71
2023/03/29 12:29:04;;;;;;;18.63;8.75;;;12.70;99.90;;;;;;5016986;28;20503;-70
2023/03/29 12:31:51;;;;;;;15.77;7.95;;;12.70;99.90;;;;;;4984890;28;20124;-71
2023/03/29 12:34:34;;;;;;;15.48;8.50;;;12.80;99.90;;;;;;5001751;28;20464;-71
2023/03/29 12:37:55;;;;;;;16.20;8.82;;;12.70;99.90;;;;;;5014134;28;20455;-72
2023/03/29 12:40:26;;;;;;;14.45;8.27;;;12.70;99.90;;;;;;4919078;29;20094;-72
2023/03/29 12:43:05;;;;;;;15.48;8.20;;;12.80;99.90;;;;;;4997687;28;20519;-70
2023/03/29 12:45:36;;;;;;;14.98;8.00;;;12.90;99.90;;;;;;5004350;28;20080;-71
2023/03/29 12:48:02;;;;;;;18.58;9.18;;;12.90;99.90;;;;;;5019702;28;20060;-70
2023/03/29 12:50:34;;;;;;;12.68;8.27;;;12.80;99.90;;;;;;4995961;28;20045;-71
2023/03/29 12:53:21;;;;;;;12.00;7.57;;;12.80;99.90;;;;;;5000584;28;20052;-72
2023/03/29 12:56:07;;;;;;;17.35;7.80;;;12.80;99.90;;;;;;4990569;28;20057;-71
2023/03/29 12:58:38;;;;;;;14.27;8.23;;;12.70;99.90;;;;;;4994369;28;20120;-71
2023/03/29 13:01:21;;;;;;;12.73;7.78;;;12.70;99.90;;;;;;4995159;28;20057;-71
2023/03/29 13:03:54;;;;;;;18.23;9.07;;;12.70;99.90;;;;;;5017573;28;20042;-71
2023/03/29 13:06:52;;;;;;;13.23;8.43;;;12.80;99.90;;;;;;4995305;28;20045;-73
2023/03/29 13:09:49;;;;;;;17.58;8.43;;;12.80;99.90;;;;;;5011855;28;20053;-72
2023/03/29 13:12:15;;;;;;;14.95;7.72;;;12.90;99.90;;;;;;4991552;28;20049;-71
2023/03/29 13:14:49;;;;;;;15.15;8.80;;;12.90;99.90;;;;;;5001373;28;20060;-71
2023/03/29 13:17:58;;;;;;;15.63;7.13;;;12.80;99.90;;;;;;4999355;28;20133;-72
2023/03/29 13:20:53;;;;;;;15.35;8.05;;;13.00;99.90;;;;;;4997854;28;20045;-71